Time;durP1;ratioP1;P1;durP2;ratioP2;P2;SDS_P1;SDS_P2;PMS_P1;PMS_P2;Temp;Humidity;BMP_temperature;BMP_pressure;BME280_temperature;BME280_humidity;BME280_pressure;Samples;Min_cycle;Max_cycle;Signal;HPM_P1;HPM_P2
2023/02/11 00:01:10;;;;;;;3.53;2.20;;;20.60;47.30;;;;;;5022447;28;20131;-65
2023/02/11 00:03:37;;;;;;;3.60;2.40;;;20.60;47.30;;;;;;5019842;28;20037;-64
2023/02/11 00:06:08;;;;;;;3.40;2.30;;;20.60;47.30;;;;;;5021433;28;20093;-64
2023/02/11 00:08:34;;;;;;;3.50;2.13;;;20.60;47.30;;;;;;5023353;28;20044;-64
2023/02/11 00:11:00;;;;;;;3.95;2.50;;;20.60;47.30;;;;;;5021319;28;20382;-64
2023/02/11 00:13:26;;;;;;;4.60;2.50;;;20.60;47.30;;;;;;5022387;28;20025;-67
2023/02/11 00:15:52;;;;;;;3.92;2.30;;;20.60;47.30;;;;;;5019000;28;20030;-64
2023/02/11 00:18:17;;;;;;;3.35;2.30;;;20.60;47.30;;;;;;5019312;28;20112;-64
2023/02/11 00:20:43;;;;;;;3.40;2.15;;;20.50;47.30;;;;;;5021735;28;20118;-65
2023/02/11 00:23:09;;;;;;;3.08;2.15;;;20.50;47.30;;;;;;5024972;28;20022;-64
2023/02/11 00:25:40;;;;;;;3.25;2.17;;;20.50;47.30;;;;;;5029626;28;20026;-65
2023/02/11 00:28:05;;;;;;;3.33;2.13;;;20.50;47.30;;;;;;5020407;28;20034;-64
2023/02/11 00:30:31;;;;;;;3.35;2.30;;;20.50;47.30;;;;;;5021406;28;20038;-66
2023/02/11 00:32:57;;;;;;;3.92;2.25;;;20.50;47.30;;;;;;5022490;28;20102;-66
2023/02/11 00:35:22;;;;;;;2.80;2.00;;;20.50;47.80;;;;;;5022160;28;20036;-64
2023/02/11 00:37:48;;;;;;;2.78;1.92;;;20.50;47.30;;;;;;5021704;28;20057;-64
2023/02/11 00:40:14;;;;;;;3.22;2.30;;;20.50;47.30;;;;;;5022355;28;20021;-64
2023/02/11 00:42:41;;;;;;;3.53;2.20;;;20.40;47.30;;;;;;5023099;28;20354;-65
2023/02/11 00:45:08;;;;;;;4.15;2.30;;;20.40;47.40;;;;;;5019005;28;20026;-65
2023/02/11 00:47:35;;;;;;;3.00;2.10;;;20.40;47.30;;;;;;5019105;28;20033;-64
2023/02/11 00:50:03;;;;;;;3.22;2.20;;;20.40;47.30;;;;;;5017215;28;20461;-65
2023/02/11 00:52:29;;;;;;;3.40;2.20;;;20.40;47.30;;;;;;5021639;28;20316;-64
2023/02/11 00:54:55;;;;;;;2.80;2.10;;;20.40;47.40;;;;;;5020490;28;20033;-64
2023/02/11 00:57:22;;;;;;;3.00;2.10;;;20.40;47.40;;;;;;5022991;28;20369;-64
2023/02/11 00:59:49;;;;;;;3.22;2.20;;;20.40;47.30;;;;;;5017750;28;20057;-64
2023/02/11 01:02:15;;;;;;;3.90;2.10;;;20.40;47.40;;;;;;5020309;28;20117;-64
2023/02/11 01:04:41;;;;;;;3.00;2.05;;;20.40;47.40;;;;;;5020320;28;20017;-65
2023/02/11 01:07:07;;;;;;;3.30;2.10;;;20.40;47.40;;;;;;5020869;28;20025;-64
2023/02/11 01:09:33;;;;;;;3.15;2.13;;;20.40;47.40;;;;;;5018660;28;20045;-67
2023/02/11 01:11:58;;;;;;;3.25;2.10;;;20.30;47.30;;;;;;5020341;28;20044;-65
2023/02/11 01:14:24;;;;;;;3.13;2.00;;;20.30;47.40;;;;;;5019564;28;20077;-65
2023/02/11 01:16:50;;;;;;;3.22;2.10;;;20.30;47.30;;;;;;5020117;28;20025;-64
2023/02/11 01:19:16;;;;;;;2.80;2.10;;;20.30;47.30;;;;;;5023009;28;20140;-64
2023/02/11 01:21:41;;;;;;;2.88;1.92;;;20.30;47.40;;;;;;5017069;28;20022;-65
2023/02/11 01:24:07;;;;;;;2.53;1.80;;;20.30;47.40;;;;;;5021134;28;20021;-64
2023/02/11 01:26:32;;;;;;;3.33;2.10;;;20.30;47.40;;;;;;5020986;28;20030;-66
2023/02/11 01:28:59;;;;;;;2.97;2.17;;;20.30;47.40;;;;;;5017715;28;20416;-64
2023/02/11 01:31:25;;;;;;;2.92;1.98;;;20.30;47.40;;;;;;5030662;28;20029;-64
2023/02/11 01:33:51;;;;;;;3.25;2.20;;;20.30;47.40;;;;;;5019101;28;20028;-64
2023/02/11 01:36:17;;;;;;;3.00;2.00;;;20.20;47.40;;;;;;5020064;28;20042;-63
2023/02/11 01:38:43;;;;;;;2.80;2.05;;;20.20;47.40;;;;;;5020367;28;20076;-64
2023/02/11 01:41:13;;;;;;;2.92;1.92;;;20.20;47.40;;;;;;5018665;28;20935;-64
2023/02/11 01:43:45;;;;;;;3.17;2.00;;;20.20;47.40;;;;;;5019289;28;20021;-64
2023/02/11 01:46:29;;;;;;;2.92;1.95;;;20.20;47.40;;;;;;5020013;28;20026;-64
2023/02/11 01:49:23;;;;;;;2.60;1.77;;;20.20;47.40;;;;;;5020487;28;20125;-64
2023/02/11 01:52:13;;;;;;;2.83;1.90;;;20.20;47.40;;;;;;5017870;28;20045;-64
2023/02/11 01:57:31;;;;;;;3.50;2.30;;;20.20;47.40;;;;;;5019725;28;20040;-66
2023/02/11 02:00:23;;;;;;;3.42;2.10;;;20.10;47.90;;;;;;5020209;28;20479;-65
2023/02/11 02:02:59;;;;;;;2.80;1.85;;;20.10;47.40;;;;;;5018124;28;20495;-64
2023/02/11 02:05:46;;;;;;;2.53;1.80;;;20.10;47.40;;;;;;5022642;28;20025;-64
2023/02/11 02:08:31;;;;;;;2.70;1.85;;;20.10;47.40;;;;;;5017613;28;20041;-64
2023/02/11 02:10:59;;;;;;;3.05;2.00;;;20.10;47.40;;;;;;5018343;28;20499;-64
2023/02/11 02:13:26;;;;;;;2.67;1.90;;;20.10;47.40;;;;;;5022290;28;20476;-64
2023/02/11 02:15:53;;;;;;;2.80;1.85;;;20.10;47.50;;;;;;5021373;28;20263;-64
2023/02/11 02:18:40;;;;;;;2.90;1.90;;;20.10;47.50;;;;;;5018334;28;20140;-64
2023/02/11 02:21:39;;;;;;;2.60;1.75;;;20.10;47.50;;;;;;5019440;28;20025;-64
2023/02/11 02:24:14;;;;;;;3.28;2.00;;;20.00;47.40;;;;;;5016209;28;20030;-63
2023/02/11 02:26:51;;;;;;;2.40;1.80;;;20.00;47.40;;;;;;5017047;28;20053;-63
2023/02/11 02:29:29;;;;;;;2.78;1.90;;;20.00;47.40;;;;;;5021463;28;20033;-63
2023/02/11 02:32:30;;;;;;;2.78;1.88;;;20.00;47.40;;;;;;5020161;28;20472;-63
2023/02/11 02:34:55;;;;;;;2.72;2.00;;;20.00;47.40;;;;;;5016064;28;20540;-63
2023/02/11 02:37:30;;;;;;;2.72;1.95;;;20.00;47.40;;;;;;5020345;28;20064;-62
2023/02/11 02:39:58;;;;;;;3.00;2.00;;;20.00;47.50;;;;;;5019101;28;20100;-65
2023/02/11 02:42:24;;;;;;;2.30;1.60;;;20.00;47.40;;;;;;5019921;28;20025;-63
2023/02/11 02:44:52;;;;;;;2.70;1.80;;;20.00;47.50;;;;;;5019934;28;20033;-64
2023/02/11 02:47:17;;;;;;;2.78;1.85;;;20.00;47.50;;;;;;5019027;28;20576;-64
2023/02/11 02:49:43;;;;;;;3.13;2.20;;;20.00;47.50;;;;;;5020640;28;20026;-65
2023/02/11 02:52:33;;;;;;;4.47;2.13;;;20.00;47.50;;;;;;5020206;28;20033;-63
2023/02/11 02:55:24;;;;;;;2.70;1.90;;;20.00;47.50;;;;;;5020014;28;20125;-65
2023/02/11 02:57:49;;;;;;;3.05;1.92;;;19.90;47.50;;;;;;5016658;28;20026;-63
2023/02/11 03:00:50;;;;;;;2.75;1.88;;;19.90;47.40;;;;;;5021906;28;20436;-64
2023/02/11 03:03:40;;;;;;;2.83;1.85;;;19.90;47.40;;;;;;5020483;28;20199;-63
2023/02/11 03:06:22;;;;;;;2.85;1.70;;;19.90;47.50;;;;;;5016494;28;20022;-63
2023/02/11 03:09:16;;;;;;;3.20;2.10;;;19.90;47.50;;;;;;5018444;28;20025;-64
2023/02/11 03:11:42;;;;;;;2.42;1.60;;;19.90;47.50;;;;;;5013250;28;20043;-63
2023/02/11 03:14:11;;;;;;;2.60;1.85;;;19.90;47.50;;;;;;5020182;28;20026;-63
2023/02/11 03:16:38;;;;;;;2.58;1.80;;;19.90;47.50;;;;;;5019312;28;20148;-63
2023/02/11 03:19:09;;;;;;;2.60;1.67;;;19.90;47.50;;;;;;5016527;28;20532;-63
2023/02/11 03:21:38;;;;;;;2.80;1.80;;;19.90;47.50;;;;;;5019736;28;20022;-64
2023/02/11 03:24:09;;;;;;;2.60;1.80;;;19.90;47.50;;;;;;5016735;28;20036;-63
2023/02/11 03:26:51;;;;;;;2.75;1.75;;;19.90;47.50;;;;;;5020167;28;20042;-63
2023/02/11 03:29:35;;;;;;;2.67;1.95;;;19.90;47.50;;;;;;5019077;28;20037;-64
2023/02/11 03:32:21;;;;;;;2.30;1.67;;;19.90;47.50;;;;;;5020403;28;20076;-64
2023/02/11 03:34:58;;;;;;;2.50;1.65;;;19.80;47.50;;;;;;5019083;28;20366;-63
2023/02/11 03:37:59;;;;;;;2.30;1.70;;;19.90;47.50;;;;;;5017661;28;20532;-63
2023/02/11 03:40:31;;;;;;;2.33;1.60;;;19.80;47.50;;;;;;5016525;28;20121;-63
2023/02/11 03:43:05;;;;;;;2.40;1.90;;;19.90;47.50;;;;;;5020013;28;20034;-63
2023/02/11 03:45:32;;;;;;;2.30;1.60;;;19.90;47.50;;;;;;5016747;28;20032;-63
2023/02/11 03:48:02;;;;;;;2.25;1.77;;;19.80;47.50;;;;;;5018796;28;20037;-63
2023/02/11 03:50:31;;;;;;;2.22;1.63;;;19.80;47.50;;;;;;5020789;28;20571;-62
2023/02/11 03:52:59;;;;;;;2.50;1.45;;;19.80;47.50;;;;;;5023390;28;20053;-63
2023/02/11 03:55:27;;;;;;;2.63;1.65;;;19.80;47.60;;;;;;5020837;28;20033;-64
2023/02/11 03:57:52;;;;;;;2.90;1.73;;;19.80;47.60;;;;;;5021525;28;20049;-63
2023/02/11 04:00:18;;;;;;;2.60;1.73;;;19.80;47.50;;;;;;5020825;28;20461;-63
2023/02/11 04:02:44;;;;;;;2.63;1.80;;;19.80;47.60;;;;;;5025834;28;20030;-64
2023/02/11 04:05:13;;;;;;;2.55;1.52;;;19.80;47.60;;;;;;5024192;28;20033;-63
2023/02/11 04:07:39;;;;;;;2.83;1.70;;;19.80;47.60;;;;;;5022418;28;20121;-64
2023/02/11 04:10:06;;;;;;;2.67;1.67;;;19.80;47.60;;;;;;5021056;28;20121;-64
2023/02/11 04:12:32;;;;;;;2.80;1.70;;;19.80;47.60;;;;;;5027606;28;20499;-63
2023/02/11 04:14:57;;;;;;;2.70;1.75;;;19.80;47.60;;;;;;5016868;28;20109;-62
2023/02/11 04:17:23;;;;;;;2.33;1.75;;;19.80;47.60;;;;;;5022007;28;20025;-63
2023/02/11 04:19:48;;;;;;;2.38;1.60;;;19.80;47.60;;;;;;5022579;28;20040;-63
2023/02/11 04:22:14;;;;;;;2.25;1.60;;;19.80;47.60;;;;;;5019053;28;20036;-65
2023/02/11 04:24:40;;;;;;;2.38;1.67;;;19.70;47.50;;;;;;5022508;28;20361;-62
2023/02/11 04:27:05;;;;;;;2.92;1.90;;;19.80;47.60;;;;;;5022755;28;20397;-63
2023/02/11 04:29:31;;;;;;;2.40;1.70;;;19.70;47.50;;;;;;5022345;28;20034;-63
2023/02/11 04:31:57;;;;;;;2.00;1.50;;;19.70;47.50;;;;;;5019863;28;20455;-63
2023/02/11 04:34:23;;;;;;;3.35;2.00;;;19.70;47.50;;;;;;5020838;28;20095;-63
2023/02/11 04:36:49;;;;;;;2.20;1.65;;;19.70;47.60;;;;;;5020634;28;20037;-63
2023/02/11 04:39:15;;;;;;;2.42;1.67;;;19.70;47.60;;;;;;5023293;28;20029;-63
2023/02/11 04:41:41;;;;;;;3.08;1.90;;;19.70;47.60;;;;;;5019144;28;20029;-63
2023/02/11 04:44:07;;;;;;;2.70;1.75;;;19.70;47.70;;;;;;5019382;28;20381;-62
2023/02/11 04:46:32;;;;;;;2.55;1.73;;;19.70;47.70;;;;;;5022965;28;20100;-64
2023/02/11 04:48:58;;;;;;;2.47;1.77;;;19.70;47.70;;;;;;5019020;28;20473;-62
2023/02/11 04:51:23;;;;;;;2.30;1.70;;;19.70;47.70;;;;;;5020728;28;20028;-63
2023/02/11 04:53:49;;;;;;;2.65;1.88;;;19.70;47.70;;;;;;5022022;28;20049;-63
2023/02/11 04:56:15;;;;;;;2.85;1.80;;;19.60;47.70;;;;;;5020210;28;20029;-62
2023/02/11 04:58:40;;;;;;;2.75;1.95;;;19.70;47.80;;;;;;5020549;28;20435;-62
2023/02/11 05:01:10;;;;;;;2.90;1.88;;;19.60;47.80;;;;;;5021486;28;20034;-64
2023/02/11 05:03:36;;;;;;;2.78;2.00;;;19.60;47.80;;;;;;5022866;28;20025;-63
2023/02/11 05:06:03;;;;;;;2.42;1.65;;;19.60;47.80;;;;;;5019168;28;20109;-63
2023/02/11 05:08:28;;;;;;;2.92;1.80;;;19.60;47.90;;;;;;5017746;28;20080;-63
2023/02/11 05:10:54;;;;;;;2.50;1.77;;;19.60;47.90;;;;;;5019666;28;20427;-63
2023/02/11 05:13:20;;;;;;;2.65;1.80;;;19.60;47.90;;;;;;5018934;28;20142;-63
2023/02/11 05:15:45;;;;;;;2.30;1.65;;;19.60;48.00;;;;;;5017633;28;20033;-63
2023/02/11 05:18:13;;;;;;;2.58;1.70;;;19.50;47.90;;;;;;5024691;28;20026;-63
2023/02/11 05:20:39;;;;;;;3.08;1.73;;;19.60;48.00;;;;;;5018016;28;20021;-63
2023/02/11 05:23:05;;;;;;;2.20;1.65;;;19.50;48.00;;;;;;5019574;28;20037;-64
2023/02/11 05:25:31;;;;;;;2.60;1.80;;;19.60;48.10;;;;;;5022467;28;20121;-65
2023/02/11 05:27:56;;;;;;;2.60;1.63;;;19.50;48.10;;;;;;5018060;28;20057;-64
2023/02/11 05:30:22;;;;;;;2.72;1.80;;;19.50;48.10;;;;;;5021934;28;20029;-65
2023/02/11 05:32:47;;;;;;;1.85;1.45;;;19.50;48.10;;;;;;5020828;28;20037;-64
2023/02/11 05:35:13;;;;;;;2.67;1.67;;;19.50;48.10;;;;;;5021284;28;20124;-64
2023/02/11 05:37:38;;;;;;;2.92;2.00;;;19.50;48.10;;;;;;5019125;28;20026;-65
2023/02/11 05:40:05;;;;;;;2.55;1.70;;;19.50;48.10;;;;;;5019377;28;20807;-64
2023/02/11 05:42:31;;;;;;;2.60;1.70;;;19.50;48.20;;;;;;5018684;28;20029;-65
2023/02/11 05:44:56;;;;;;;2.63;1.70;;;19.50;48.20;;;;;;5020537;28;20106;-64
2023/02/11 05:47:22;;;;;;;2.75;1.80;;;19.50;48.20;;;;;;5020559;28;20041;-64
2023/02/11 05:49:48;;;;;;;3.03;2.00;;;19.50;48.20;;;;;;5017752;28;20029;-64
2023/02/11 05:52:13;;;;;;;2.90;1.80;;;19.50;48.20;;;;;;5020867;28;20038;-65
2023/02/11 05:54:39;;;;;;;2.45;1.80;;;19.50;48.20;;;;;;5019756;28;20445;-65
2023/02/11 05:57:04;;;;;;;2.45;1.70;;;19.50;48.20;;;;;;5019821;28;20110;-65
2023/02/11 05:59:30;;;;;;;2.20;1.70;;;19.50;48.20;;;;;;5013989;28;20065;-65
2023/02/11 06:01:55;;;;;;;2.70;1.88;;;19.50;48.20;;;;;;5016591;28;20457;-64
2023/02/11 06:04:21;;;;;;;2.40;1.70;;;19.50;48.20;;;;;;5018490;28;20108;-64
2023/02/11 06:06:47;;;;;;;2.50;1.88;;;19.50;48.30;;;;;;5019877;28;20041;-64
2023/02/11 06:09:12;;;;;;;2.42;1.80;;;19.50;48.30;;;;;;5017096;28;20381;-64
2023/02/11 06:11:38;;;;;;;3.00;1.80;;;19.50;48.30;;;;;;5019012;28;20030;-64
2023/02/11 06:14:04;;;;;;;2.80;1.80;;;19.50;48.30;;;;;;5018693;28;20514;-64
2023/02/11 06:16:29;;;;;;;2.45;1.88;;;19.50;48.30;;;;;;5021242;28;20536;-64
2023/02/11 06:18:55;;;;;;;3.00;2.00;;;19.50;48.30;;;;;;5019769;28;20105;-65
2023/02/11 06:21:21;;;;;;;2.30;1.73;;;19.50;48.30;;;;;;5022114;28;20025;-63
2023/02/11 06:23:46;;;;;;;3.30;1.90;;;19.50;48.30;;;;;;5018347;28;20182;-66
2023/02/11 06:26:20;;;;;;;3.22;1.75;;;19.50;48.30;;;;;;5019876;28;20028;-64
2023/02/11 06:28:46;;;;;;;2.40;1.73;;;19.50;48.30;;;;;;5021968;28;20017;-64
2023/02/11 06:31:12;;;;;;;2.72;1.92;;;19.50;48.30;;;;;;5020146;28;20453;-63
2023/02/11 06:33:38;;;;;;;2.45;1.85;;;19.50;48.30;;;;;;5020709;28;20029;-65
2023/02/11 06:36:11;;;;;;;2.90;1.90;;;19.50;48.30;;;;;;5017760;28;20021;-64
2023/02/11 06:38:37;;;;;;;2.83;1.85;;;19.50;48.20;;;;;;5018490;28;20033;-63
2023/02/11 06:41:03;;;;;;;2.72;1.70;;;19.40;48.20;;;;;;5018863;28;20022;-64
2023/02/11 06:43:28;;;;;;;2.55;1.50;;;19.40;48.20;;;;;;5018404;28;20141;-64
2023/02/11 06:45:54;;;;;;;2.63;1.80;;;19.50;48.30;;;;;;5022341;28;20489;-64
2023/02/11 06:48:21;;;;;;;2.83;1.92;;;19.50;48.30;;;;;;5019320;28;20147;-63
2023/02/11 06:50:46;;;;;;;2.53;1.73;;;19.50;48.30;;;;;;5020748;28;20026;-63
2023/02/11 06:53:12;;;;;;;2.03;1.52;;;19.40;48.20;;;;;;5019857;28;20029;-63
2023/02/11 06:55:38;;;;;;;2.97;1.80;;;19.40;48.20;;;;;;5018213;28;20037;-64
2023/02/11 06:58:03;;;;;;;2.78;1.77;;;19.50;48.30;;;;;;5020287;28;20196;-65
2023/02/11 07:00:29;;;;;;;2.70;1.70;;;19.40;48.20;;;;;;5020812;28;20040;-64
2023/02/11 07:02:55;;;;;;;2.17;1.60;;;19.40;48.20;;;;;;5018055;28;20361;-64
2023/02/11 07:05:21;;;;;;;4.60;2.10;;;19.40;48.20;;;;;;5017732;28;20021;-65
2023/02/11 07:07:47;;;;;;;2.83;1.70;;;19.40;48.20;;;;;;5020613;28;20526;-64
2023/02/11 07:10:12;;;;;;;2.25;1.60;;;19.40;48.20;;;;;;5020191;28;20033;-64
2023/02/11 07:12:38;;;;;;;2.40;1.70;;;19.40;48.30;;;;;;5017877;28;20076;-65
2023/02/11 07:15:05;;;;;;;2.50;1.80;;;19.40;48.20;;;;;;5019089;28;20048;-64
2023/02/11 07:17:30;;;;;;;2.83;1.90;;;19.40;48.20;;;;;;5019749;28;20034;-65
2023/02/11 07:19:56;;;;;;;2.17;1.63;;;19.40;48.20;;;;;;5016382;28;20333;-64
2023/02/11 07:22:21;;;;;;;2.55;1.95;;;19.40;48.20;;;;;;5019674;28;20021;-65
2023/02/11 07:24:48;;;;;;;2.60;1.77;;;19.40;48.20;;;;;;5022882;28;20022;-67
2023/02/11 07:27:13;;;;;;;2.72;1.90;;;19.40;48.20;;;;;;5020889;28;20393;-65
2023/02/11 07:29:41;;;;;;;2.67;1.83;;;19.40;48.20;;;;;;5020727;28;20029;-64
2023/02/11 07:32:06;;;;;;;3.10;2.00;;;19.40;48.20;;;;;;5023586;28;20025;-64
2023/02/11 07:34:32;;;;;;;2.47;1.80;;;19.40;48.30;;;;;;5026304;28;20550;-64
2023/02/11 07:36:58;;;;;;;2.42;1.77;;;19.40;48.30;;;;;;5023251;28;20145;-65
2023/02/11 07:39:26;;;;;;;3.00;1.90;;;19.40;48.30;;;;;;5017894;28;20057;-64
2023/02/11 07:41:52;;;;;;;3.42;2.13;;;19.40;48.40;;;;;;5022612;28;20032;-64
2023/02/11 07:44:18;;;;;;;2.85;1.98;;;19.40;48.40;;;;;;5022938;28;20049;-65
2023/02/11 07:46:44;;;;;;;2.63;1.90;;;19.40;48.50;;;;;;5023730;28;20037;-65
2023/02/11 07:49:11;;;;;;;3.55;2.05;;;19.40;48.50;;;;;;5020090;28;20330;-65
2023/02/11 07:51:37;;;;;;;3.50;2.00;;;19.40;48.50;;;;;;5022055;28;20504;-64
2023/02/11 07:54:02;;;;;;;2.78;1.90;;;19.40;48.50;;;;;;5022672;28;20021;-64
2023/02/11 07:56:29;;;;;;;2.58;1.85;;;19.40;48.50;;;;;;5022575;28;20427;-65
2023/02/11 07:58:58;;;;;;;4.15;1.80;;;19.40;48.60;;;;;;5023273;28;20025;-64
2023/02/11 08:01:27;;;;;;;2.50;1.70;;;19.40;48.50;;;;;;5022010;28;20038;-65
2023/02/11 08:03:54;;;;;;;2.73;2.00;;;19.40;48.60;;;;;;5021592;28;20056;-65
2023/02/11 08:06:21;;;;;;;2.35;1.70;;;19.40;48.60;;;;;;5022716;28;20139;-64
2023/02/11 08:08:48;;;;;;;3.08;2.03;;;19.40;48.60;;;;;;5022437;28;20389;-66
2023/02/11 08:11:25;;;;;;;2.30;1.70;;;19.40;49.20;;;;;;5021986;28;20064;-64
2023/02/11 08:13:51;;;;;;;2.38;1.75;;;19.40;48.70;;;;;;5018451;28;20515;-65
2023/02/11 08:16:20;;;;;;;2.25;1.58;;;19.40;48.60;;;;;;5021889;28;20053;-65
2023/02/11 08:18:46;;;;;;;2.70;1.70;;;19.40;48.60;;;;;;5021535;28;20029;-64
2023/02/11 08:21:12;;;;;;;3.50;2.00;;;19.40;48.70;;;;;;5019572;28;20512;-65
2023/02/11 08:23:40;;;;;;;2.75;1.75;;;19.40;48.60;;;;;;5022049;28;20128;-64
2023/02/11 08:26:15;;;;;;;3.72;1.70;;;19.40;48.60;;;;;;5020874;28;20025;-65
2023/02/11 08:28:42;;;;;;;2.88;1.75;;;19.40;48.60;;;;;;5022835;28;20511;-64
2023/02/11 08:31:17;;;;;;;2.60;1.70;;;19.40;48.60;;;;;;5022326;28;20108;-65
2023/02/11 08:33:43;;;;;;;2.45;1.70;;;19.40;48.60;;;;;;5017053;28;20433;-64
2023/02/11 08:36:22;;;;;;;2.83;1.92;;;19.50;48.70;;;;;;5023255;28;20064;-64
2023/02/11 08:38:48;;;;;;;2.70;1.87;;;19.40;48.70;;;;;;5022140;28;20477;-66
2023/02/11 08:41:14;;;;;;;2.85;1.95;;;19.50;48.70;;;;;;5021282;28;20022;-64
2023/02/11 08:43:41;;;;;;;3.80;1.92;;;19.40;48.70;;;;;;5018662;28;20022;-65
2023/02/11 08:46:08;;;;;;;5.25;2.45;;;19.40;48.70;;;;;;5020148;28;20494;-64
2023/02/11 08:48:33;;;;;;;6.60;3.30;;;19.40;48.70;;;;;;5022078;28;20034;-64
2023/02/11 08:50:59;;;;;;;8.15;4.20;;;19.40;48.70;;;;;;5020673;28;20421;-63
2023/02/11 08:53:25;;;;;;;10.77;5.57;;;19.40;48.70;;;;;;5018892;28;20037;-64
2023/02/11 08:55:54;;;;;;;11.02;5.93;;;19.40;48.70;;;;;;5025082;28;20060;-63
2023/02/11 08:58:20;;;;;;;11.77;6.10;;;19.40;48.70;;;;;;5020325;28;20656;-65
2023/02/11 09:00:47;;;;;;;13.10;6.65;;;19.50;48.70;;;;;;5021882;28;20033;-64
2023/02/11 09:03:13;;;;;;;12.50;7.13;;;19.40;48.60;;;;;;5027443;28;20113;-65
2023/02/11 09:05:47;;;;;;;12.02;6.80;;;19.40;48.60;;;;;;5021227;28;20028;-65
2023/02/11 09:08:13;;;;;;;12.80;7.32;;;19.50;48.70;;;;;;5018896;28;20075;-64
2023/02/11 09:10:39;;;;;;;11.40;6.65;;;19.40;48.60;;;;;;5022227;28;20033;-64
2023/02/11 09:13:06;;;;;;;11.45;7.10;;;19.40;48.60;;;;;;5020380;28;20033;-65
2023/02/11 09:15:32;;;;;;;12.57;6.65;;;19.40;48.50;;;;;;5034601;28;20032;-65
2023/02/11 09:17:58;;;;;;;12.98;7.10;;;19.40;48.50;;;;;;5019981;28;20030;-65
2023/02/11 09:20:25;;;;;;;11.45;6.45;;;19.50;48.50;;;;;;5019405;28;20040;-65
2023/02/11 09:22:51;;;;;;;11.43;7.15;;;19.50;48.60;;;;;;5020201;28;20017;-66
2023/02/11 09:25:16;;;;;;;13.57;7.10;;;19.50;48.50;;;;;;5019249;28;20022;-68
2023/02/11 09:27:42;;;;;;;14.57;7.60;;;19.40;48.50;;;;;;5018454;28;20358;-67
2023/02/11 09:30:08;;;;;;;13.52;6.70;;;19.50;48.50;;;;;;5018602;28;20034;-68
2023/02/11 09:32:33;;;;;;;11.98;6.60;;;19.40;48.50;;;;;;5019749;28;20033;-67
2023/02/11 09:34:59;;;;;;;11.02;6.28;;;19.40;48.40;;;;;;5021472;28;20507;-68
2023/02/11 09:37:25;;;;;;;11.10;5.95;;;19.40;48.40;;;;;;5019662;28;20049;-68
2023/02/11 09:39:50;;;;;;;10.48;6.32;;;19.40;48.40;;;;;;5019127;28;20106;-68
2023/02/11 09:42:34;;;;;;;11.85;6.20;;;19.50;48.50;;;;;;5018208;28;20029;-68
2023/02/11 09:45:02;;;;;;;14.00;6.32;;;19.50;48.40;;;;;;5017399;28;20057;-68
2023/02/11 09:47:34;;;;;;;11.90;6.07;;;19.50;48.50;;;;;;5014684;28;20038;-69
2023/02/11 09:50:17;;;;;;;10.98;6.50;;;19.50;48.50;;;;;;5017044;28;20126;-68
2023/02/11 09:53:18;;;;;;;8.77;5.63;;;19.40;48.40;;;;;;5017313;28;20105;-68
2023/02/11 09:55:47;;;;;;;10.02;5.93;;;19.50;48.50;;;;;;5021674;28;20036;-68
2023/02/11 09:58:21;;;;;;;10.23;5.63;;;19.40;48.40;;;;;;5022574;28;20026;-68
2023/02/11 10:01:20;;;;;;;10.60;5.85;;;19.50;48.50;;;;;;5022831;28;20500;-68
2023/02/11 10:04:20;;;;;;;10.65;5.75;;;19.50;48.50;;;;;;5019355;28;20022;-68
2023/02/11 10:06:51;;;;;;;;;;;19.40;48.50;;;;;;5020146;28;20026;-68
2023/02/11 10:09:54;;;;;;;8.68;5.07;;;19.50;48.50;;;;;;5020657;28;19913;-67
2023/02/11 10:12:26;;;;;;;9.98;5.00;;;19.50;48.50;;;;;;5017840;28;20033;-67
2023/02/11 10:15:19;;;;;;;10.57;5.50;;;19.50;48.50;;;;;;5016205;28;20458;-67
2023/02/11 10:18:05;;;;;;;10.15;5.43;;;19.50;48.50;;;;;;5019446;28;20045;-67
2023/02/11 10:20:33;;;;;;;9.30;4.65;;;19.50;48.90;;;;;;5020077;28;20076;-67
2023/02/11 10:23:07;;;;;;;7.63;4.67;;;19.50;48.50;;;;;;5019003;28;20017;-67
2023/02/11 10:25:39;;;;;;;7.88;4.53;;;19.50;48.50;;;;;;5017992;28;20065;-67
2023/02/11 10:28:17;;;;;;;8.60;4.75;;;19.50;48.50;;;;;;5020006;28;20499;-67
2023/02/11 10:31:03;;;;;;;8.68;4.80;;;19.50;48.50;;;;;;5017031;28;20025;-67
2023/02/11 10:33:46;;;;;;;7.03;4.15;;;19.50;48.60;;;;;;5018703;28;20079;-67
2023/02/11 10:36:14;;;;;;;7.68;4.47;;;19.50;48.60;;;;;;5019655;28;20520;-66
2023/02/11 10:38:40;;;;;;;8.50;4.47;;;19.50;48.60;;;;;;5020996;28;20065;-67
2023/02/11 10:41:29;;;;;;;6.55;4.10;;;19.50;48.60;;;;;;5020129;28;20432;-67
2023/02/11 10:43:55;;;;;;;7.43;4.25;;;19.50;48.60;;;;;;5017097;28;20382;-67
2023/02/11 10:46:25;;;;;;;7.45;4.07;;;19.50;48.60;;;;;;5016745;28;20036;-67
2023/02/11 10:48:52;;;;;;;7.95;4.15;;;19.50;48.70;;;;;;5020179;28;20112;-67
2023/02/11 10:51:32;;;;;;;7.38;4.00;;;19.50;48.70;;;;;;5016775;28;20084;-67
2023/02/11 10:54:04;;;;;;;8.07;4.40;;;19.50;48.70;;;;;;5020309;28;20033;-66
2023/02/11 10:56:33;;;;;;;7.00;3.88;;;19.50;48.70;;;;;;5020056;28;20025;-67
2023/02/11 10:59:01;;;;;;;5.25;3.80;;;19.50;48.70;;;;;;5021861;28;20030;-67
2023/02/11 11:01:51;;;;;;;6.33;3.90;;;19.50;48.70;;;;;;5022994;28;20033;-67
2023/02/11 11:04:28;;;;;;;7.68;4.30;;;19.50;48.80;;;;;;5025098;28;20140;-66
2023/02/11 11:06:55;;;;;;;7.03;3.95;;;19.50;48.80;;;;;;5023770;28;20103;-67
2023/02/11 11:09:46;;;;;;;6.18;4.00;;;19.50;48.80;;;;;;5022746;28;20068;-66
2023/02/11 11:12:29;;;;;;;7.72;3.88;;;19.50;48.90;;;;;;5023610;28;20116;-67
2023/02/11 11:15:01;;;;;;;6.63;3.88;;;19.50;48.90;;;;;;5021240;28;20505;-67
2023/02/11 11:17:30;;;;;;;6.50;3.72;;;19.50;48.90;;;;;;5024448;28;20022;-67
2023/02/11 11:20:19;;;;;;;6.47;4.18;;;19.50;48.90;;;;;;5023047;28;20108;-67
2023/02/11 11:22:46;;;;;;;6.50;3.42;;;19.50;48.90;;;;;;5019738;28;20473;-67
2023/02/11 11:25:27;;;;;;;6.60;3.90;;;19.50;48.90;;;;;;5022927;28;20456;-67
2023/02/11 11:27:56;;;;;;;5.40;3.28;;;19.50;49.00;;;;;;5026357;28;20033;-67
2023/02/11 11:30:26;;;;;;;7.50;3.88;;;19.50;49.00;;;;;;5021713;28;20046;-67
2023/02/11 11:32:52;;;;;;;;;;;19.50;49.00;;;;;;5022193;28;20033;-67
2023/02/11 11:35:31;;;;;;;5.35;3.20;;;19.50;49.00;;;;;;5021276;28;19909;-67
2023/02/11 11:38:03;;;;;;;6.00;3.30;;;19.50;49.00;;;;;;5023247;28;20025;-67
2023/02/11 11:40:34;;;;;;;5.80;3.15;;;19.50;49.00;;;;;;5020879;28;20025;-66
2023/02/11 11:43:15;;;;;;;5.18;3.15;;;19.50;49.00;;;;;;5022534;28;20072;-67
2023/02/11 11:45:58;;;;;;;6.13;3.47;;;19.50;49.10;;;;;;5020506;28;20037;-67
2023/02/11 11:48:43;;;;;;;6.53;3.40;;;19.50;49.10;;;;;;5019305;28;20096;-66
2023/02/11 11:51:11;;;;;;;6.28;3.80;;;19.50;49.10;;;;;;5025115;28;20029;-67
2023/02/11 11:53:58;;;;;;;6.07;3.47;;;19.50;49.10;;;;;;5022219;28;20026;-68
2023/02/11 11:56:31;;;;;;;10.15;4.15;;;19.50;49.10;;;;;;5021162;28;20161;-67
2023/02/11 11:59:01;;;;;;;7.82;4.07;;;19.50;49.10;;;;;;5021133;28;20034;-68
2023/02/11 12:01:48;;;;;;;9.38;4.70;;;19.50;49.10;;;;;;5021130;28;20436;-68
2023/02/11 12:04:41;;;;;;;9.98;5.13;;;19.50;49.20;;;;;;5022628;28;20028;-68
2023/02/11 12:07:37;;;;;;;10.35;4.93;;;19.50;49.20;;;;;;5022370;28;20116;-67
2023/02/11 12:10:48;;;;;;;11.65;5.20;;;19.50;49.20;;;;;;5016993;28;20116;-67
2023/02/11 12:13:34;;;;;;;11.48;5.55;;;19.50;49.20;;;;;;5014803;28;20034;-68
2023/02/11 12:16:24;;;;;;;10.25;5.40;;;19.50;49.20;;;;;;5023165;28;20042;-67
2023/02/11 12:19:26;;;;;;;12.20;5.68;;;19.50;49.30;;;;;;5021286;28;20022;-65
2023/02/11 12:21:59;;;;;;;11.32;6.35;;;19.60;49.30;;;;;;5019510;28;20030;-68
2023/02/11 12:24:28;;;;;;;11.48;5.78;;;19.60;49.30;;;;;;5020965;28;20493;-66
2023/02/11 12:27:22;;;;;;;11.88;6.00;;;19.60;49.40;;;;;;5021762;28;20056;-67
2023/02/11 12:29:57;;;;;;;11.30;5.57;;;19.60;49.40;;;;;;5023048;28;20130;-67
2023/02/11 12:32:32;;;;;;;10.43;5.63;;;19.60;49.30;;;;;;5022024;28;20486;-68
2023/02/11 12:35:09;;;;;;;12.48;6.47;;;19.60;49.30;;;;;;5020555;28;20559;-68
2023/02/11 12:38:14;;;;;;;12.60;5.70;;;19.60;49.40;;;;;;5021488;28;20033;-67
2023/02/11 12:40:56;;;;;;;10.75;5.68;;;19.60;49.40;;;;;;5022218;28;20034;-68
2023/02/11 12:43:35;;;;;;;13.07;5.85;;;19.60;49.40;;;;;;5017357;28;20474;-68
2023/02/11 12:46:13;;;;;;;9.88;5.50;;;19.60;49.40;;;;;;5022959;28;20037;-67
2023/02/11 12:49:24;;;;;;;9.05;5.50;;;19.60;49.40;;;;;;5024543;28;20040;-67
2023/02/11 12:51:59;;;;;;;8.75;5.07;;;19.60;49.40;;;;;;5018065;28;20034;-67
2023/02/11 12:55:01;;;;;;;10.95;5.63;;;19.60;49.40;;;;;;5017959;28;20060;-68
2023/02/11 12:57:30;;;;;;;9.38;4.63;;;19.60;49.70;;;;;;5014078;28;20059;-67
2023/02/11 13:00:17;;;;;;;10.07;5.05;;;19.70;49.70;;;;;;5029532;28;20362;-67
2023/02/11 13:02:59;;;;;;;7.85;4.47;;;19.80;49.60;;;;;;5018466;28;20121;-67
2023/02/11 13:05:33;;;;;;;7.93;3.90;;;19.80;49.30;;;;;;5022800;28;20084;-67
2023/02/11 13:08:08;;;;;;;7.25;4.20;;;19.80;49.20;;;;;;5020141;28;20037;-67
2023/02/11 13:10:37;;;;;;;7.43;3.92;;;19.90;49.20;;;;;;5021752;28;20095;-68